sensor_id;sensor_type;location;lat;lon;timestamp;temperature;humidity
2897;DHT22;1458;49.728;9.228;2024-02-26T00:02:06;5.60;95.10
2897;DHT22;1458;49.728;9.228;2024-02-26T00:04:35;5.70;94.50
2897;DHT22;1458;49.728;9.228;2024-02-26T00:07:02;5.70;94.20
2897;DHT22;1458;49.728;9.228;2024-02-26T00:09:30;5.60;94.00
2897;DHT22;1458;49.728;9.228;2024-02-26T00:11:58;5.60;94.30
2897;DHT22;1458;49.728;9.228;2024-02-26T00:14:26;5.60;94.00
2897;DHT22;1458;49.728;9.228;2024-02-26T00:16:53;5.60;94.40
2897;DHT22;1458;49.728;9.228;2024-02-26T00:19:20;5.60;93.90
2897;DHT22;1458;49.728;9.228;2024-02-26T00:21:49;5.60;93.90
2897;DHT22;1458;49.728;9.228;2024-02-26T00:24:17;5.50;93.90
2897;DHT22;1458;49.728;9.228;2024-02-26T00:26:44;5.50;94.20
2897;DHT22;1458;49.728;9.228;2024-02-26T00:29:12;5.80;93.10
2897;DHT22;1458;49.728;9.228;2024-02-26T00:31:39;5.90;91.90
2897;DHT22;1458;49.728;9.228;2024-02-26T00:34:07;5.80;92.10
2897;DHT22;1458;49.728;9.228;2024-02-26T00:36:34;5.80;92.80
2897;DHT22;1458;49.728;9.228;2024-02-26T00:39:03;5.80;92.10
2897;DHT22;1458;49.728;9.228;2024-02-26T00:41:30;6.00;90.00
2897;DHT22;1458;49.728;9.228;2024-02-26T00:43:58;5.90;90.70
2897;DHT22;1458;49.728;9.228;2024-02-26T00:46:26;6.00;91.10
2897;DHT22;1458;49.728;9.228;2024-02-26T00:48:53;6.00;90.80
2897;DHT22;1458;49.728;9.228;2024-02-26T00:51:20;6.10;90.20
2897;DHT22;1458;49.728;9.228;2024-02-26T00:53:48;6.10;90.10
2897;DHT22;1458;49.728;9.228;2024-02-26T00:56:17;6.10;90.20
2897;DHT22;1458;49.728;9.228;2024-02-26T00:58:44;6.10;89.80
2897;DHT22;1458;49.728;9.228;2024-02-26T01:01:15;6.10;89.60
2897;DHT22;1458;49.728;9.228;2024-02-26T01:03:42;6.10;89.70
2897;DHT22;1458;49.728;9.228;2024-02-26T01:06:10;6.20;88.70
2897;DHT22;1458;49.728;9.228;2024-02-26T01:08:37;6.10;88.90
2897;DHT22;1458;49.728;9.228;2024-02-26T01:11:05;6.20;88.40
2897;DHT22;1458;49.728;9.228;2024-02-26T01:13:33;6.20;87.90
2897;DHT22;1458;49.728;9.228;2024-02-26T01:16:01;6.20;87.40
2897;DHT22;1458;49.728;9.228;2024-02-26T01:18:28;6.20;86.40
2897;DHT22;1458;49.728;9.228;2024-02-26T01:20:56;6.20;87.10
2897;DHT22;1458;49.728;9.228;2024-02-26T01:23:23;6.20;87.70
2897;DHT22;1458;49.728;9.228;2024-02-26T01:25:51;6.20;86.90
2897;DHT22;1458;49.728;9.228;2024-02-26T01:28:18;6.20;86.50
2897;DHT22;1458;49.728;9.228;2024-02-26T01:30:47;6.20;86.10
2897;DHT22;1458;49.728;9.228;2024-02-26T01:33:14;6.10;86.70
2897;DHT22;1458;49.728;9.228;2024-02-26T01:35:42;6.20;86.70
2897;DHT22;1458;49.728;9.228;2024-02-26T01:38:10;6.30;86.10
2897;DHT22;1458;49.728;9.228;2024-02-26T01:40:38;6.40;85.10
2897;DHT22;1458;49.728;9.228;2024-02-26T01:43:05;6.30;86.10
2897;DHT22;1458;49.728;9.228;2024-02-26T01:45:33;6.30;86.10
2897;DHT22;1458;49.728;9.228;2024-02-26T01:48:02;6.20;86.10
2897;DHT22;1458;49.728;9.228;2024-02-26T01:50:30;6.20;86.00
2897;DHT22;1458;49.728;9.228;2024-02-26T01:52:58;6.20;86.10
2897;DHT22;1458;49.728;9.228;2024-02-26T01:55:26;6.20;86.00
2897;DHT22;1458;49.728;9.228;2024-02-26T01:57:54;6.30;86.00
2897;DHT22;1458;49.728;9.228;2024-02-26T02:00:22;6.30;85.10
2897;DHT22;1458;49.728;9.228;2024-02-26T02:02:50;6.30;86.00
2897;DHT22;1458;49.728;9.228;2024-02-26T02:05:20;6.30;85.50
2897;DHT22;1458;49.728;9.228;2024-02-26T02:07:48;6.30;85.20
2897;DHT22;1458;49.728;9.228;2024-02-26T02:10:17;6.30;84.70
2897;DHT22;1458;49.728;9.228;2024-02-26T02:12:48;6.30;84.50
2897;DHT22;1458;49.728;9.228;2024-02-26T02:15:16;6.30;84.60
2897;DHT22;1458;49.728;9.228;2024-02-26T02:17:44;6.20;85.40
2897;DHT22;1458;49.728;9.228;2024-02-26T02:20:15;6.20;85.10
2897;DHT22;1458;49.728;9.228;2024-02-26T02:22:45;6.20;85.40
2897;DHT22;1458;49.728;9.228;2024-02-26T02:25:13;6.20;85.80
2897;DHT22;1458;49.728;9.228;2024-02-26T02:27:41;6.30;85.40
2897;DHT22;1458;49.728;9.228;2024-02-26T02:30:11;6.20;85.10
2897;DHT22;1458;49.728;9.228;2024-02-26T02:32:40;6.10;85.90
2897;DHT22;1458;49.728;9.228;2024-02-26T02:35:08;6.20;86.50
2897;DHT22;1458;49.728;9.228;2024-02-26T02:37:36;6.20;86.00
2897;DHT22;1458;49.728;9.228;2024-02-26T02:40:06;6.20;86.00
2897;DHT22;1458;49.728;9.228;2024-02-26T02:42:34;6.10;86.00
2897;DHT22;1458;49.728;9.228;2024-02-26T02:45:02;6.10;86.00
2897;DHT22;1458;49.728;9.228;2024-02-26T02:47:29;6.10;86.30
2897;DHT22;1458;49.728;9.228;2024-02-26T02:49:57;6.10;86.00
2897;DHT22;1458;49.728;9.228;2024-02-26T02:52:24;6.00;86.30
2897;DHT22;1458;49.728;9.228;2024-02-26T02:54:51;6.00;86.50
2897;DHT22;1458;49.728;9.228;2024-02-26T02:57:20;6.00;86.00
2897;DHT22;1458;49.728;9.228;2024-02-26T02:59:48;6.00;86.60
2897;DHT22;1458;49.728;9.228;2024-02-26T03:02:15;6.00;86.90
2897;DHT22;1458;49.728;9.228;2024-02-26T03:04:43;5.90;86.70
2897;DHT22;1458;49.728;9.228;2024-02-26T03:07:10;6.00;87.30
2897;DHT22;1458;49.728;9.228;2024-02-26T03:09:38;6.00;87.00
2897;DHT22;1458;49.728;9.228;2024-02-26T03:12:08;5.90;86.70
2897;DHT22;1458;49.728;9.228;2024-02-26T03:14:37;5.90;87.70
2897;DHT22;1458;49.728;9.228;2024-02-26T03:17:04;5.90;88.30
2897;DHT22;1458;49.728;9.228;2024-02-26T03:19:32;5.90;86.80
2897;DHT22;1458;49.728;9.228;2024-02-26T03:21:59;5.90;87.70
2897;DHT22;1458;49.728;9.228;2024-02-26T03:24:27;5.90;88.00
2897;DHT22;1458;49.728;9.228;2024-02-26T03:26:54;5.90;87.70
2897;DHT22;1458;49.728;9.228;2024-02-26T03:29:22;5.90;87.40
2897;DHT22;1458;49.728;9.228;2024-02-26T03:31:51;5.90;87.20
2897;DHT22;1458;49.728;9.228;2024-02-26T03:34:18;5.90;87.30
2897;DHT22;1458;49.728;9.228;2024-02-26T03:36:45;5.90;87.60
2897;DHT22;1458;49.728;9.228;2024-02-26T03:39:13;5.90;87.10
2897;DHT22;1458;49.728;9.228;2024-02-26T03:41:40;5.90;87.40
2897;DHT22;1458;49.728;9.228;2024-02-26T03:44:08;5.80;87.10
2897;DHT22;1458;49.728;9.228;2024-02-26T03:46:35;5.80;88.00
2897;DHT22;1458;49.728;9.228;2024-02-26T03:49:04;5.70;88.60
2897;DHT22;1458;49.728;9.228;2024-02-26T03:51:31;5.80;89.20
2897;DHT22;1458;49.728;9.228;2024-02-26T03:53:59;5.80;88.50
2897;DHT22;1458;49.728;9.228;2024-02-26T03:56:26;5.90;88.30
2897;DHT22;1458;49.728;9.228;2024-02-26T03:58:53;5.90;87.70
2897;DHT22;1458;49.728;9.228;2024-02-26T04:01:21;6.00;87.60
2897;DHT22;1458;49.728;9.228;2024-02-26T04:03:49;6.00;87.30
2897;DHT22;1458;49.728;9.228;2024-02-26T04:06:17;6.00;87.00
2897;DHT22;1458;49.728;9.228;2024-02-26T04:08:46;5.90;86.70
2897;DHT22;1458;49.728;9.228;2024-02-26T04:11:14;5.90;87.00
2897;DHT22;1458;49.728;9.228;2024-02-26T04:13:43;5.90;86.80
2897;DHT22;1458;49.728;9.228;2024-02-26T04:16:15;5.90;86.60
2897;DHT22;1458;49.728;9.228;2024-02-26T04:18:43;5.90;86.90
2897;DHT22;1458;49.728;9.228;2024-02-26T04:21:10;6.00;86.60
2897;DHT22;1458;49.728;9.228;2024-02-26T04:23:39;5.90;86.90
2897;DHT22;1458;49.728;9.228;2024-02-26T04:26:06;6.00;86.80
2897;DHT22;1458;49.728;9.228;2024-02-26T04:28:34;6.00;86.80
2897;DHT22;1458;49.728;9.228;2024-02-26T04:31:02;5.90;86.20
2897;DHT22;1458;49.728;9.228;2024-02-26T04:33:34;5.90;87.70
2897;DHT22;1458;49.728;9.228;2024-02-26T04:36:01;6.00;85.90
2897;DHT22;1458;49.728;9.228;2024-02-26T04:38:29;6.00;85.90
2897;DHT22;1458;49.728;9.228;2024-02-26T04:40:58;6.00;85.90
2897;DHT22;1458;49.728;9.228;2024-02-26T04:43:25;6.00;86.20
2897;DHT22;1458;49.728;9.228;2024-02-26T04:45:52;6.00;85.90
2897;DHT22;1458;49.728;9.228;2024-02-26T04:48:22;6.10;87.70
2897;DHT22;1458;49.728;9.228;2024-02-26T04:50:50;6.10;88.90
2897;DHT22;1458;49.728;9.228;2024-02-26T04:53:17;6.00;88.90
2897;DHT22;1458;49.728;9.228;2024-02-26T04:55:45;6.10;88.10
2897;DHT22;1458;49.728;9.228;2024-02-26T04:58:13;6.10;87.50
2897;DHT22;1458;49.728;9.228;2024-02-26T05:00:41;6.10;86.70
2897;DHT22;1458;49.728;9.228;2024-02-26T05:03:08;6.10;86.00
2897;DHT22;1458;49.728;9.228;2024-02-26T05:05:38;6.10;86.00
2897;DHT22;1458;49.728;9.228;2024-02-26T05:08:13;6.00;85.80
2897;DHT22;1458;49.728;9.228;2024-02-26T05:10:40;6.00;87.10
2897;DHT22;1458;49.728;9.228;2024-02-26T05:13:09;6.00;86.80
2897;DHT22;1458;49.728;9.228;2024-02-26T05:15:38;5.90;86.50
2897;DHT22;1458;49.728;9.228;2024-02-26T05:18:05;6.00;86.50
2897;DHT22;1458;49.728;9.228;2024-02-26T05:20:33;6.00;85.90
2897;DHT22;1458;49.728;9.228;2024-02-26T05:23:01;6.00;86.80
2897;DHT22;1458;49.728;9.228;2024-02-26T05:25:30;6.00;86.10
2897;DHT22;1458;49.728;9.228;2024-02-26T05:27:57;6.00;86.70
2897;DHT22;1458;49.728;9.228;2024-02-26T05:30:24;6.00;88.10
2897;DHT22;1458;49.728;9.228;2024-02-26T05:32:54;6.10;87.90
2897;DHT22;1458;49.728;9.228;2024-02-26T05:35:21;6.10;88.20
2897;DHT22;1458;49.728;9.228;2024-02-26T05:37:49;6.10;89.40
2897;DHT22;1458;49.728;9.228;2024-02-26T05:40:16;6.00;87.90
2897;DHT22;1458;49.728;9.228;2024-02-26T05:42:44;6.00;89.20
2897;DHT22;1458;49.728;9.228;2024-02-26T05:45:11;6.00;90.20
2897;DHT22;1458;49.728;9.228;2024-02-26T05:47:39;6.00;91.00
2897;DHT22;1458;49.728;9.228;2024-02-26T05:50:10;6.00;91.40
2897;DHT22;1458;49.728;9.228;2024-02-26T05:52:38;5.90;90.80
2897;DHT22;1458;49.728;9.228;2024-02-26T05:55:07;5.90;91.40
2897;DHT22;1458;49.728;9.228;2024-02-26T05:57:35;5.90;92.30
2897;DHT22;1458;49.728;9.228;2024-02-26T06:00:03;5.90;93.10
2897;DHT22;1458;49.728;9.228;2024-02-26T06:02:38;6.00;92.90
2897;DHT22;1458;49.728;9.228;2024-02-26T06:05:06;5.90;93.60
2897;DHT22;1458;49.728;9.228;2024-02-26T06:07:36;5.80;95.10
2897;DHT22;1458;49.728;9.228;2024-02-26T06:10:03;5.80;96.10
2897;DHT22;1458;49.728;9.228;2024-02-26T06:12:30;5.70;97.10
2897;DHT22;1458;49.728;9.228;2024-02-26T06:14:58;5.70;97.00
2897;DHT22;1458;49.728;9.228;2024-02-26T06:17:27;5.70;97.50
2897;DHT22;1458;49.728;9.228;2024-02-26T06:19:54;5.70;98.60
2897;DHT22;1458;49.728;9.228;2024-02-26T06:22:22;5.70;99.90
2897;DHT22;1458;49.728;9.228;2024-02-26T06:24:51;5.70;99.90
2897;DHT22;1458;49.728;9.228;2024-02-26T06:27:18;5.70;99.90
2897;DHT22;1458;49.728;9.228;2024-02-26T06:29:47;5.70;99.90
2897;DHT22;1458;49.728;9.228;2024-02-26T06:32:14;5.80;99.90
2897;DHT22;1458;49.728;9.228;2024-02-26T06:34:42;5.90;99.90
2897;DHT22;1458;49.728;9.228;2024-02-26T06:37:09;5.90;99.30
2897;DHT22;1458;49.728;9.228;2024-02-26T06:39:37;5.90;98.60
2897;DHT22;1458;49.728;9.228;2024-02-26T06:42:06;5.90;99.90
2897;DHT22;1458;49.728;9.228;2024-02-26T06:44:34;5.90;99.90
2897;DHT22;1458;49.728;9.228;2024-02-26T06:47:01;5.90;99.90
2897;DHT22;1458;49.728;9.228;2024-02-26T06:49:29;6.00;99.90
2897;DHT22;1458;49.728;9.228;2024-02-26T06:51:57;6.10;99.10
2897;DHT22;1458;49.728;9.228;2024-02-26T06:54:24;6.10;99.60
2897;DHT22;1458;49.728;9.228;2024-02-26T06:56:51;6.00;99.90
2897;DHT22;1458;49.728;9.228;2024-02-26T06:59:20;6.10;99.80
2897;DHT22;1458;49.728;9.228;2024-02-26T07:01:49;6.00;99.30
2897;DHT22;1458;49.728;9.228;2024-02-26T07:04:16;5.90;99.20
2897;DHT22;1458;49.728;9.228;2024-02-26T07:06:44;6.00;98.50
2897;DHT22;1458;49.728;9.228;2024-02-26T07:09:13;6.00;96.20
2897;DHT22;1458;49.728;9.228;2024-02-26T07:11:40;6.10;97.70
2897;DHT22;1458;49.728;9.228;2024-02-26T07:14:09;6.10;97.70
2897;DHT22;1458;49.728;9.228;2024-02-26T07:16:38;6.10;99.10
2897;DHT22;1458;49.728;9.228;2024-02-26T07:19:06;6.10;99.40
2897;DHT22;1458;49.728;9.228;2024-02-26T07:21:33;6.00;98.90
2897;DHT22;1458;49.728;9.228;2024-02-26T07:24:00;6.00;99.20
2897;DHT22;1458;49.728;9.228;2024-02-26T07:26:28;5.90;99.90
2897;DHT22;1458;49.728;9.228;2024-02-26T07:28:56;5.90;99.90
2897;DHT22;1458;49.728;9.228;2024-02-26T07:31:24;5.90;99.90
2897;DHT22;1458;49.728;9.228;2024-02-26T07:33:52;5.90;99.90
2897;DHT22;1458;49.728;9.228;2024-02-26T07:36:20;5.90;99.90
2897;DHT22;1458;49.728;9.228;2024-02-26T07:38:47;6.00;99.90
2897;DHT22;1458;49.728;9.228;2024-02-26T07:41:15;6.00;99.90
2897;DHT22;1458;49.728;9.228;2024-02-26T07:43:42;6.00;99.90
2897;DHT22;1458;49.728;9.228;2024-02-26T07:46:11;6.00;99.90
2897;DHT22;1458;49.728;9.228;2024-02-26T07:48:39;6.00;99.90
2897;DHT22;1458;49.728;9.228;2024-02-26T07:51:08;6.10;99.90
2897;DHT22;1458;49.728;9.228;2024-02-26T07:53:35;6.20;99.90
2897;DHT22;1458;49.728;9.228;2024-02-26T07:56:03;6.20;99.90
2897;DHT22;1458;49.728;9.228;2024-02-26T07:58:32;6.20;99.90
2897;DHT22;1458;49.728;9.228;2024-02-26T08:01:00;6.20;99.90
2897;DHT22;1458;49.728;9.228;2024-02-26T08:03:27;6.40;99.90
2897;DHT22;1458;49.728;9.228;2024-02-26T08:05:54;6.50;99.90
2897;DHT22;1458;49.728;9.228;2024-02-26T08:08:23;6.40;99.90
2897;DHT22;1458;49.728;9.228;2024-02-26T08:10:50;6.40;99.90
2897;DHT22;1458;49.728;9.228;2024-02-26T08:13:18;6.60;99.90
2897;DHT22;1458;49.728;9.228;2024-02-26T08:15:45;6.60;99.90
2897;DHT22;1458;49.728;9.228;2024-02-26T08:18:13;6.70;99.90
2897;DHT22;1458;49.728;9.228;2024-02-26T08:20:40;6.80;99.90
2897;DHT22;1458;49.728;9.228;2024-02-26T08:23:07;6.70;99.90
2897;DHT22;1458;49.728;9.228;2024-02-26T08:25:36;6.70;99.90
2897;DHT22;1458;49.728;9.228;2024-02-26T08:28:04;6.80;99.90
2897;DHT22;1458;49.728;9.228;2024-02-26T08:30:32;6.90;99.90
2897;DHT22;1458;49.728;9.228;2024-02-26T08:33:00;7.00;99.90
2897;DHT22;1458;49.728;9.228;2024-02-26T08:35:27;7.00;99.90
2897;DHT22;1458;49.728;9.228;2024-02-26T08:37:55;7.10;99.90
2897;DHT22;1458;49.728;9.228;2024-02-26T08:40:22;7.20;99.90
2897;DHT22;1458;49.728;9.228;2024-02-26T08:42:51;7.20;99.90
2897;DHT22;1458;49.728;9.228;2024-02-26T08:45:19;7.10;99.90
2897;DHT22;1458;49.728;9.228;2024-02-26T08:47:46;7.10;99.90
2897;DHT22;1458;49.728;9.228;2024-02-26T08:50:14;7.20;99.90
2897;DHT22;1458;49.728;9.228;2024-02-26T08:52:42;7.10;99.90
2897;DHT22;1458;49.728;9.228;2024-02-26T08:55:09;7.10;99.90
2897;DHT22;1458;49.728;9.228;2024-02-26T08:57:38;7.00;99.90
2897;DHT22;1458;49.728;9.228;2024-02-26T09:00:08;7.10;99.90
2897;DHT22;1458;49.728;9.228;2024-02-26T09:02:37;7.00;99.90
2897;DHT22;1458;49.728;9.228;2024-02-26T09:05:05;7.10;99.90
2897;DHT22;1458;49.728;9.228;2024-02-26T09:07:33;7.30;99.90
2897;DHT22;1458;49.728;9.228;2024-02-26T09:10:00;7.40;99.90
2897;DHT22;1458;49.728;9.228;2024-02-26T09:12:28;7.70;99.90
2897;DHT22;1458;49.728;9.228;2024-02-26T09:14:56;7.90;99.40
2897;DHT22;1458;49.728;9.228;2024-02-26T09:17:24;8.00;98.30
2897;DHT22;1458;49.728;9.228;2024-02-26T09:19:52;8.10;97.20
2897;DHT22;1458;49.728;9.228;2024-02-26T09:22:19;8.20;96.40
2897;DHT22;1458;49.728;9.228;2024-02-26T09:24:47;8.20;96.30
2897;DHT22;1458;49.728;9.228;2024-02-26T09:27:15;8.30;96.30
2897;DHT22;1458;49.728;9.228;2024-02-26T09:29:43;8.50;94.60
2897;DHT22;1458;49.728;9.228;2024-02-26T09:32:10;8.50;94.70
2897;DHT22;1458;49.728;9.228;2024-02-26T09:34:41;8.60;93.70
2897;DHT22;1458;49.728;9.228;2024-02-26T09:37:08;8.70;92.60
2897;DHT22;1458;49.728;9.228;2024-02-26T09:39:36;8.70;91.00
2897;DHT22;1458;49.728;9.228;2024-02-26T09:42:05;8.60;90.80
2897;DHT22;1458;49.728;9.228;2024-02-26T09:44:36;8.60;89.80
2897;DHT22;1458;49.728;9.228;2024-02-26T09:47:10;8.40;88.10
2897;DHT22;1458;49.728;9.228;2024-02-26T09:49:40;8.40;90.60
2897;DHT22;1458;49.728;9.228;2024-02-26T09:52:09;8.40;91.50
2897;DHT22;1458;49.728;9.228;2024-02-26T09:54:37;8.30;92.40
2897;DHT22;1458;49.728;9.228;2024-02-26T09:57:09;8.30;92.70
2897;DHT22;1458;49.728;9.228;2024-02-26T09:59:41;8.30;93.00
2897;DHT22;1458;49.728;9.228;2024-02-26T10:02:11;8.40;92.90
2897;DHT22;1458;49.728;9.228;2024-02-26T10:04:42;8.30;91.50
2897;DHT22;1458;49.728;9.228;2024-02-26T10:07:12;8.40;92.70
2897;DHT22;1458;49.728;9.228;2024-02-26T10:09:40;8.50;91.80
2897;DHT22;1458;49.728;9.228;2024-02-26T10:12:10;8.50;91.30
2897;DHT22;1458;49.728;9.228;2024-02-26T10:14:37;8.60;91.20
2897;DHT22;1458;49.728;9.228;2024-02-26T10:17:07;8.70;90.60
2897;DHT22;1458;49.728;9.228;2024-02-26T10:19:35;8.90;90.50
2897;DHT22;1458;49.728;9.228;2024-02-26T10:22:05;9.20;89.00
2897;DHT22;1458;49.728;9.228;2024-02-26T10:24:33;9.10;86.80
2897;DHT22;1458;49.728;9.228;2024-02-26T10:27:02;9.10;87.40
2897;DHT22;1458;49.728;9.228;2024-02-26T10:29:30;9.10;86.50
2897;DHT22;1458;49.728;9.228;2024-02-26T10:31:58;9.00;84.80
2897;DHT22;1458;49.728;9.228;2024-02-26T10:34:26;9.00;88.20
2897;DHT22;1458;49.728;9.228;2024-02-26T10:36:55;9.00;86.90
2897;DHT22;1458;49.728;9.228;2024-02-26T10:39:24;9.20;87.40
2897;DHT22;1458;49.728;9.228;2024-02-26T10:41:51;9.70;84.90
2897;DHT22;1458;49.728;9.228;2024-02-26T10:44:18;9.90;83.10
2897;DHT22;1458;49.728;9.228;2024-02-26T10:46:47;10.20;82.50
2897;DHT22;1458;49.728;9.228;2024-02-26T10:49:15;10.00;78.70
2897;DHT22;1458;49.728;9.228;2024-02-26T10:51:52;9.90;80.20
2897;DHT22;1458;49.728;9.228;2024-02-26T10:54:26;10.00;78.20
2897;DHT22;1458;49.728;9.228;2024-02-26T10:56:56;10.10;77.40
2897;DHT22;1458;49.728;9.228;2024-02-26T10:59:24;10.20;77.00
2897;DHT22;1458;49.728;9.228;2024-02-26T11:01:52;10.30;75.20
2897;DHT22;1458;49.728;9.228;2024-02-26T11:04:21;10.20;72.80
2897;DHT22;1458;49.728;9.228;2024-02-26T11:06:51;9.90;76.20
2897;DHT22;1458;49.728;9.228;2024-02-26T11:09:20;9.80;76.10
2897;DHT22;1458;49.728;9.228;2024-02-26T11:11:50;9.90;77.30
2897;DHT22;1458;49.728;9.228;2024-02-26T11:14:21;10.30;81.70
2897;DHT22;1458;49.728;9.228;2024-02-26T11:16:51;10.60;79.30
2897;DHT22;1458;49.728;9.228;2024-02-26T11:19:19;10.70;75.20
2897;DHT22;1458;49.728;9.228;2024-02-26T11:21:47;10.70;74.30
2897;DHT22;1458;49.728;9.228;2024-02-26T11:24:15;10.50;72.80
2897;DHT22;1458;49.728;9.228;2024-02-26T11:26:48;10.40;73.90
2897;DHT22;1458;49.728;9.228;2024-02-26T11:29:26;10.30;75.10
2897;DHT22;1458;49.728;9.228;2024-02-26T11:31:59;10.40;73.90
2897;DHT22;1458;49.728;9.228;2024-02-26T11:34:27;10.50;76.90
2897;DHT22;1458;49.728;9.228;2024-02-26T11:36:56;10.60;76.60
2897;DHT22;1458;49.728;9.228;2024-02-26T11:39:24;10.70;74.90
2897;DHT22;1458;49.728;9.228;2024-02-26T11:41:54;11.10;71.50
2897;DHT22;1458;49.728;9.228;2024-02-26T11:44:29;11.00;71.00
2897;DHT22;1458;49.728;9.228;2024-02-26T11:46:56;11.10;71.20
2897;DHT22;1458;49.728;9.228;2024-02-26T11:49:32;11.00;70.80
2897;DHT22;1458;49.728;9.228;2024-02-26T11:52:00;11.30;71.40
2897;DHT22;1458;49.728;9.228;2024-02-26T11:54:39;11.40;70.00
2897;DHT22;1458;49.728;9.228;2024-02-26T11:57:28;11.30;73.60
2897;DHT22;1458;49.728;9.228;2024-02-26T12:00:02;11.10;68.60
2897;DHT22;1458;49.728;9.228;2024-02-26T12:02:49;10.80;70.80
2897;DHT22;1458;49.728;9.228;2024-02-26T12:05:24;10.70;69.30
2897;DHT22;1458;49.728;9.228;2024-02-26T12:07:55;10.90;71.40
2897;DHT22;1458;49.728;9.228;2024-02-26T12:10:25;11.20;71.20
2897;DHT22;1458;49.728;9.228;2024-02-26T12:12:58;11.30;70.20
2897;DHT22;1458;49.728;9.228;2024-02-26T12:15:31;11.20;71.80
2897;DHT22;1458;49.728;9.228;2024-02-26T12:18:01;11.10;69.90
2897;DHT22;1458;49.728;9.228;2024-02-26T12:20:30;11.10;69.80
2897;DHT22;1458;49.728;9.228;2024-02-26T12:22:58;11.20;69.90
2897;DHT22;1458;49.728;9.228;2024-02-26T12:25:27;11.10;68.20
2897;DHT22;1458;49.728;9.228;2024-02-26T12:27:57;11.10;71.50
2897;DHT22;1458;49.728;9.228;2024-02-26T12:30:26;11.20;71.70
2897;DHT22;1458;49.728;9.228;2024-02-26T12:33:00;11.10;69.00
2897;DHT22;1458;49.728;9.228;2024-02-26T12:35:29;11.10;69.30
2897;DHT22;1458;49.728;9.228;2024-02-26T12:37:58;11.10;69.50
2897;DHT22;1458;49.728;9.228;2024-02-26T12:40:25;11.30;67.80
2897;DHT22;1458;49.728;9.228;2024-02-26T12:42:54;11.50;69.20
2897;DHT22;1458;49.728;9.228;2024-02-26T12:45:23;11.60;67.60
2897;DHT22;1458;49.728;9.228;2024-02-26T12:47:54;11.80;67.90
2897;DHT22;1458;49.728;9.228;2024-02-26T12:50:22;12.00;67.00
2897;DHT22;1458;49.728;9.228;2024-02-26T12:52:51;12.20;65.10
2897;DHT22;1458;49.728;9.228;2024-02-26T12:55:20;12.10;67.90
2897;DHT22;1458;49.728;9.228;2024-02-26T12:57:49;12.10;67.90
2897;DHT22;1458;49.728;9.228;2024-02-26T13:00:20;12.20;68.20
2897;DHT22;1458;49.728;9.228;2024-02-26T13:02:51;12.10;67.30
2897;DHT22;1458;49.728;9.228;2024-02-26T13:05:20;12.10;66.90
2897;DHT22;1458;49.728;9.228;2024-02-26T13:07:48;12.10;65.60
2897;DHT22;1458;49.728;9.228;2024-02-26T13:10:17;12.10;66.70
2897;DHT22;1458;49.728;9.228;2024-02-26T13:12:47;11.80;65.00
2897;DHT22;1458;49.728;9.228;2024-02-26T13:15:17;11.70;65.90
2897;DHT22;1458;49.728;9.228;2024-02-26T13:17:47;11.70;68.40
2897;DHT22;1458;49.728;9.228;2024-02-26T13:20:25;11.70;67.70
2897;DHT22;1458;49.728;9.228;2024-02-26T13:23:00;11.50;65.30
2897;DHT22;1458;49.728;9.228;2024-02-26T13:25:28;11.50;67.70
2897;DHT22;1458;49.728;9.228;2024-02-26T13:28:07;11.50;67.30
2897;DHT22;1458;49.728;9.228;2024-02-26T13:30:36;11.50;66.40
2897;DHT22;1458;49.728;9.228;2024-02-26T13:33:12;11.30;68.40
2897;DHT22;1458;49.728;9.228;2024-02-26T13:35:40;11.40;66.80
2897;DHT22;1458;49.728;9.228;2024-02-26T13:38:07;11.60;69.60
2897;DHT22;1458;49.728;9.228;2024-02-26T13:40:35;11.50;67.90
2897;DHT22;1458;49.728;9.228;2024-02-26T13:43:03;11.50;69.80
2897;DHT22;1458;49.728;9.228;2024-02-26T13:45:34;11.60;69.00
2897;DHT22;1458;49.728;9.228;2024-02-26T13:48:06;11.60;66.60
2897;DHT22;1458;49.728;9.228;2024-02-26T13:50:37;11.60;66.60
2897;DHT22;1458;49.728;9.228;2024-02-26T13:53:05;11.60;67.50
2897;DHT22;1458;49.728;9.228;2024-02-26T13:55:32;12.00;65.30
2897;DHT22;1458;49.728;9.228;2024-02-26T13:58:00;12.20;64.70
2897;DHT22;1458;49.728;9.228;2024-02-26T14:00:28;12.10;66.10
2897;DHT22;1458;49.728;9.228;2024-02-26T14:02:57;12.20;65.40
2897;DHT22;1458;49.728;9.228;2024-02-26T14:05:25;12.00;65.40
2897;DHT22;1458;49.728;9.228;2024-02-26T14:07:54;11.80;65.00
2897;DHT22;1458;49.728;9.228;2024-02-26T14:10:22;11.90;69.10
2897;DHT22;1458;49.728;9.228;2024-02-26T14:12:49;12.10;65.20
2897;DHT22;1458;49.728;9.228;2024-02-26T14:15:17;12.10;64.50
2897;DHT22;1458;49.728;9.228;2024-02-26T14:17:44;11.90;65.20
2897;DHT22;1458;49.728;9.228;2024-02-26T14:20:19;12.00;65.30
2897;DHT22;1458;49.728;9.228;2024-02-26T14:22:47;11.80;65.20
2897;DHT22;1458;49.728;9.228;2024-02-26T14:25:16;11.70;65.30
2897;DHT22;1458;49.728;9.228;2024-02-26T14:27:43;11.60;64.20
2897;DHT22;1458;49.728;9.228;2024-02-26T14:30:13;11.60;67.70
2897;DHT22;1458;49.728;9.228;2024-02-26T14:32:41;11.70;66.70
2897;DHT22;1458;49.728;9.228;2024-02-26T14:35:09;11.70;66.30
2897;DHT22;1458;49.728;9.228;2024-02-26T14:37:37;11.60;67.50
2897;DHT22;1458;49.728;9.228;2024-02-26T14:40:05;11.50;66.10
2897;DHT22;1458;49.728;9.228;2024-02-26T14:42:35;11.40;66.60
2897;DHT22;1458;49.728;9.228;2024-02-26T14:45:03;11.40;68.20
2897;DHT22;1458;49.728;9.228;2024-02-26T14:47:33;11.40;67.20
2897;DHT22;1458;49.728;9.228;2024-02-26T14:50:00;11.40;67.50
2897;DHT22;1458;49.728;9.228;2024-02-26T14:52:28;11.30;66.40
2897;DHT22;1458;49.728;9.228;2024-02-26T14:54:56;11.20;66.30
2897;DHT22;1458;49.728;9.228;2024-02-26T14:57:24;11.00;66.70
2897;DHT22;1458;49.728;9.228;2024-02-26T14:59:53;11.00;67.50
2897;DHT22;1458;49.728;9.228;2024-02-26T15:02:20;11.10;67.20
2897;DHT22;1458;49.728;9.228;2024-02-26T15:04:48;11.20;66.30
2897;DHT22;1458;49.728;9.228;2024-02-26T15:07:15;11.10;66.30
2897;DHT22;1458;49.728;9.228;2024-02-26T15:09:45;11.20;66.20
2897;DHT22;1458;49.728;9.228;2024-02-26T15:12:13;11.10;65.70
2897;DHT22;1458;49.728;9.228;2024-02-26T15:14:43;11.10;65.30
2897;DHT22;1458;49.728;9.228;2024-02-26T15:17:13;11.10;66.00
2897;DHT22;1458;49.728;9.228;2024-02-26T15:19:41;11.10;67.80
2897;DHT22;1458;49.728;9.228;2024-02-26T15:22:09;11.20;68.20
2897;DHT22;1458;49.728;9.228;2024-02-26T15:24:37;11.20;67.10
2897;DHT22;1458;49.728;9.228;2024-02-26T15:27:04;11.10;66.80
2897;DHT22;1458;49.728;9.228;2024-02-26T15:29:32;11.10;67.00
2897;DHT22;1458;49.728;9.228;2024-02-26T15:31:59;11.20;66.20
2897;DHT22;1458;49.728;9.228;2024-02-26T15:34:29;11.10;67.00
2897;DHT22;1458;49.728;9.228;2024-02-26T15:36:56;11.20;65.90
2897;DHT22;1458;49.728;9.228;2024-02-26T15:39:23;11.20;65.80
2897;DHT22;1458;49.728;9.228;2024-02-26T15:41:51;11.10;65.90
2897;DHT22;1458;49.728;9.228;2024-02-26T15:44:18;11.10;65.80
2897;DHT22;1458;49.728;9.228;2024-02-26T15:46:46;11.00;65.80
2897;DHT22;1458;49.728;9.228;2024-02-26T15:49:14;10.90;65.30
2897;DHT22;1458;49.728;9.228;2024-02-26T15:51:43;11.00;66.50
2897;DHT22;1458;49.728;9.228;2024-02-26T15:54:10;10.90;66.40
2897;DHT22;1458;49.728;9.228;2024-02-26T15:56:38;10.80;65.60
2897;DHT22;1458;49.728;9.228;2024-02-26T15:59:05;10.70;65.10
2897;DHT22;1458;49.728;9.228;2024-02-26T16:01:32;10.70;64.90
2897;DHT22;1458;49.728;9.228;2024-02-26T16:04:00;10.70;65.30
2897;DHT22;1458;49.728;9.228;2024-02-26T16:06:36;10.60;65.00
2897;DHT22;1458;49.728;9.228;2024-02-26T16:09:08;10.50;66.60
2897;DHT22;1458;49.728;9.228;2024-02-26T16:11:36;10.50;66.10
2897;DHT22;1458;49.728;9.228;2024-02-26T16:14:11;10.40;66.60
2897;DHT22;1458;49.728;9.228;2024-02-26T16:16:52;10.40;66.30
2897;DHT22;1458;49.728;9.228;2024-02-26T16:19:23;10.40;66.00
2897;DHT22;1458;49.728;9.228;2024-02-26T16:21:52;10.40;66.00